createdAt,value
2022-09-03T00:02:26.869Z,99809.78
2022-09-03T00:04:58.813Z,99815.78
2022-09-03T00:07:51.646Z,99820.09
2022-09-03T00:10:29.282Z,99828.59
2022-09-03T00:13:00.778Z,99826.84
2022-09-03T00:15:29.316Z,99837.09
2022-09-03T00:18:02.679Z,99839.69
2022-09-03T00:20:39.178Z,99843.09
2022-09-03T00:23:19.817Z,99844.75
2022-09-03T00:26:14.394Z,99845.66
2022-09-03T00:29:17.858Z,99856.78
2022-09-03T00:31:48.700Z,99850.69
2022-09-03T00:34:34.217Z,99859.31
2022-09-03T00:37:01.205Z,99873.81
2022-09-03T00:39:28.671Z,99868.59
2022-09-03T00:42:24.879Z,99867.75
2022-09-03T00:45:03.138Z,99871.97
2022-09-03T00:48:02.303Z,99865.16
2022-09-03T00:51:10.706Z,99875.38
2022-09-03T00:53:59.263Z,99884.00
2022-09-03T00:57:10.989Z,99883.94
2022-09-03T00:59:43.046Z,99878.72
2022-09-03T01:02:18.674Z,99878.72
2022-09-03T01:05:10.528Z,99888.06
2022-09-03T01:08:22.247Z,99876.84
2022-09-03T01:11:23.254Z,99883.66
2022-09-03T01:14:16.275Z,99883.59
2022-09-03T01:17:29.123Z,99883.56
2022-09-03T01:20:09.093Z,99885.22
2022-09-03T01:22:52.122Z,99886.00
2022-09-03T01:25:37.586Z,99881.69
2022-09-03T01:28:19.991Z,99881.56
2022-09-03T01:31:12.086Z,99880.69
2022-09-03T01:33:49.945Z,99883.16
2022-09-03T01:36:20.412Z,99893.44
2022-09-03T01:39:04.710Z,99902.84
2022-09-03T01:42:11.244Z,99903.59
2022-09-03T01:45:09.600Z,99895.81
2022-09-03T01:47:55.350Z,99898.34
2022-09-03T01:50:42.656Z,99908.59
2022-09-03T01:53:25.292Z,99909.47
2022-09-03T01:56:06.169Z,99918.00
2022-09-03T01:59:31.553Z,99917.19
2022-09-03T02:02:21.395Z,99925.78
2022-09-03T02:05:01.927Z,99923.13
2022-09-03T02:07:36.629Z,99941.06
2022-09-03T02:10:06.892Z,99939.31
2022-09-03T02:12:37.274Z,99939.25
2022-09-03T02:15:10.215Z,99941.91
2022-09-03T02:17:37.409Z,99935.88
2022-09-03T02:20:07.573Z,99943.56
2022-09-03T02:22:34.945Z,99942.69
2022-09-03T02:25:01.965Z,99941.84
2022-09-03T02:27:30.520Z,99949.56
2022-09-03T02:29:58.376Z,99948.69
2022-09-03T02:32:25.830Z,99948.66
2022-09-03T02:34:52.606Z,99954.69
2022-09-03T02:37:19.849Z,99947.78
2022-09-03T02:39:46.820Z,99954.69
2022-09-03T02:42:14.781Z,99952.09
2022-09-03T02:45:00.526Z,99961.53
2022-09-03T02:47:33.568Z,99966.69
2022-09-03T02:50:00.324Z,99958.97
2022-09-03T02:52:27.066Z,99959.84
2022-09-03T02:54:53.857Z,99965.00
2022-09-03T02:57:27.470Z,99967.59
2022-09-03T02:59:54.733Z,99965.91
2022-09-03T03:02:21.557Z,99970.16
2022-09-03T03:04:48.395Z,99963.28
2022-09-03T03:07:15.193Z,99970.16
2022-09-03T03:09:41.893Z,99968.44
2022-09-03T03:12:10.381Z,99971.84
2022-09-03T03:14:37.294Z,99971.84
2022-09-03T03:17:04.290Z,99970.13
2022-09-03T03:19:31.077Z,99973.53
2022-09-03T03:21:58.128Z,99965.81
2022-09-03T03:24:24.894Z,99973.59
2022-09-03T03:26:51.696Z,99973.59
2022-09-03T03:29:18.597Z,99973.63
2022-09-03T03:31:45.322Z,99970.25
2022-09-03T03:34:12.182Z,99981.47
2022-09-03T03:36:39.022Z,99990.09
2022-09-03T03:39:05.811Z,99980.66
2022-09-03T03:41:35.573Z,99992.59
2022-09-03T03:44:05.643Z,99996.09
2022-09-03T03:46:35.161Z,99993.53
2022-09-03T03:49:02.792Z,99988.41
2022-09-03T03:51:30.508Z,99995.34
2022-09-03T03:54:00.202Z,99996.25
2022-09-03T03:56:29.965Z,99985.09
2022-09-03T03:58:58.807Z,99991.19
2022-09-03T04:01:27.159Z,99992.13
2022-09-03T04:03:58.465Z,100002.50
2022-09-03T04:06:25.406Z,100000.81
2022-09-03T04:08:52.221Z,100000.03
2022-09-03T04:11:21.612Z,100000.13
2022-09-03T04:13:49.528Z,100010.50
2022-09-03T04:16:19.376Z,100008.00
2022-09-03T04:18:46.572Z,100001.19
2022-09-03T04:21:16.632Z,100011.59
2022-09-03T04:23:45.470Z,100013.31
2022-09-03T04:26:15.799Z,100009.94
2022-09-03T04:28:42.652Z,100012.47
2022-09-03T04:31:11.276Z,100010.81
2022-09-03T04:33:39.709Z,100015.13
2022-09-03T04:36:19.177Z,100016.91
2022-09-03T04:38:47.764Z,100016.16
2022-09-03T04:41:26.049Z,100022.28
2022-09-03T04:43:55.023Z,100017.19
2022-09-03T04:46:26.091Z,100019.81
2022-09-03T04:48:54.972Z,100021.63
2022-09-03T04:51:27.493Z,100015.69
2022-09-03T04:53:59.168Z,100017.56
2022-09-03T04:56:28.851Z,100020.19
2022-09-03T04:59:01.563Z,100015.09
2022-09-03T05:01:30.779Z,100011.66
2022-09-03T05:03:58.498Z,100016.84
2022-09-03T05:06:29.698Z,100021.22
2022-09-03T05:08:57.434Z,100027.34
2022-09-03T05:11:25.748Z,100024.88
2022-09-03T05:13:55.664Z,100030.94
2022-09-03T05:16:23.920Z,100036.19
2022-09-03T05:18:55.800Z,100041.41
2022-09-03T05:21:24.146Z,100030.22
2022-09-03T05:23:52.897Z,100034.56
2022-09-03T05:26:25.460Z,100032.91
2022-09-03T05:28:58.025Z,100032.09
2022-09-03T05:31:28.230Z,100041.66
2022-09-03T05:33:59.715Z,100040.88
2022-09-03T05:36:29.412Z,100046.94
2022-09-03T05:38:56.540Z,100048.69
2022-09-03T05:41:26.112Z,100045.28
2022-09-03T05:43:59.329Z,100049.69
2022-09-03T05:46:38.372Z,100063.53
2022-09-03T05:49:07.641Z,100063.53
2022-09-03T05:51:36.926Z,100061.03
2022-09-03T05:54:04.128Z,100055.03
2022-09-03T05:56:32.697Z,100064.63
2022-09-03T05:59:01.933Z,100062.09
2022-09-03T06:01:34.306Z,100059.59
2022-09-03T06:04:05.343Z,100069.09
2022-09-03T06:06:34.833Z,100066.63
2022-09-03T06:09:07.572Z,100075.25
2022-09-03T06:11:37.462Z,100070.16
2022-09-03T06:14:08.212Z,100067.63
2022-09-03T06:16:37.710Z,100063.41
2022-09-03T06:19:09.784Z,100071.22
2022-09-03T06:21:40.090Z,100073.88
2022-09-03T06:24:06.924Z,100065.28
2022-09-03T06:26:33.721Z,100067.06
2022-09-03T06:29:01.598Z,100062.84
2022-09-03T06:31:28.468Z,100062.00
2022-09-03T06:33:59.585Z,100075.88
2022-09-03T06:36:27.769Z,100077.63
2022-09-03T06:38:56.589Z,100071.63
2022-09-03T06:41:25.836Z,100076.84
2022-09-03T06:44:05.001Z,100076.88
2022-09-03T06:49:05.838Z,100094.19
2022-09-03T06:51:33.613Z,100082.94
2022-09-03T06:54:08.469Z,100084.69
2022-09-03T06:56:40.291Z,100083.84
2022-09-03T06:59:10.556Z,100077.88
2022-09-03T07:01:41.054Z,100083.94
2022-09-03T07:04:12.948Z,100078.78
2022-09-03T07:06:42.403Z,100080.56
2022-09-03T07:09:11.285Z,100069.34
2022-09-03T07:11:40.259Z,100074.56
2022-09-03T07:14:07.005Z,100090.16
2022-09-03T07:16:37.589Z,100092.75
2022-09-03T07:19:06.076Z,100100.50
2022-09-03T07:21:36.812Z,100091.84
2022-09-03T07:24:05.750Z,100096.22
2022-09-03T07:26:35.617Z,100091.84
2022-09-03T07:29:03.016Z,100111.75
2022-09-03T07:31:35.142Z,100099.63
2022-09-03T07:34:06.126Z,100083.22
2022-09-03T07:36:48.814Z,100097.03
2022-09-03T07:39:16.771Z,100091.84
2022-09-03T07:41:45.751Z,100084.94
2022-09-03T07:44:19.730Z,100087.56
2022-09-03T07:46:49.583Z,100085.84
2022-09-03T07:49:17.361Z,100083.28
2022-09-03T07:51:46.575Z,100088.50
2022-09-03T07:54:13.392Z,100085.91
2022-09-03T07:56:41.207Z,100084.16
2022-09-03T07:59:09.115Z,100079.84
2022-09-03T08:01:38.306Z,100081.56
2022-09-03T08:04:09.760Z,100078.09
2022-09-03T08:06:38.833Z,100094.56
2022-09-03T08:09:08.922Z,100078.09
2022-09-03T08:11:40.689Z,100072.94
2022-09-03T08:14:10.081Z,100085.03
2022-09-03T08:16:48.109Z,100095.44
2022-09-03T08:19:15.597Z,100100.63
2022-09-03T08:21:43.845Z,100066.00
2022-09-03T08:24:12.001Z,100077.25
2022-09-03T08:26:45.103Z,100088.47
2022-09-03T08:29:14.585Z,100072.91
2022-09-03T08:31:41.743Z,100072.91
2022-09-03T08:34:10.511Z,100065.97
2022-09-03T08:36:40.033Z,100089.34
2022-09-03T08:39:10.036Z,100085.00
2022-09-03T08:42:04.799Z,100077.19
2022-09-03T08:44:54.237Z,100081.47
2022-09-03T08:47:30.384Z,100053.75
2022-09-03T08:50:24.685Z,100064.97
2022-09-03T08:52:59.603Z,100061.47
2022-09-03T08:55:29.391Z,100050.19
2022-09-03T08:58:05.212Z,100061.44
2022-09-03T09:00:42.373Z,100049.31
2022-09-03T09:03:20.914Z,100051.03
2022-09-03T09:05:57.237Z,100055.38
2022-09-03T09:08:27.952Z,100050.16
2022-09-03T09:11:05.735Z,100058.81
2022-09-03T09:14:03.934Z,100025.88
2022-09-03T09:17:13.333Z,100017.16
2022-09-03T09:20:00.304Z,100027.50
2022-09-03T09:22:32.691Z,100008.41
2022-09-03T09:25:04.562Z,99992.81
2022-09-03T09:27:33.055Z,99973.72
2022-09-03T09:30:04.433Z,99940.81
2022-09-03T09:32:39.268Z,99918.16
2022-09-03T09:35:10.476Z,99952.66
2022-09-03T09:37:50.921Z,99935.13
2022-09-03T09:40:25.979Z,99858.69
2022-09-03T09:43:23.040Z,99888.84
2022-09-03T09:45:53.304Z,99866.91
2022-09-03T09:48:34.668Z,99893.41
2022-09-03T09:51:11.956Z,99826.34
2022-09-03T09:53:40.238Z,99815.84
2022-09-03T09:56:08.235Z,99800.94
2022-09-03T09:58:35.518Z,99794.88
2022-09-03T10:01:04.849Z,99824.41
2022-09-03T10:03:35.733Z,99801.75
2022-09-03T10:06:32.694Z,99772.50
2022-09-03T10:09:17.421Z,99805.59
2022-09-03T10:11:52.297Z,99798.59
2022-09-03T10:14:35.584Z,99769.78
2022-09-03T10:17:16.955Z,99775.50
2022-09-03T10:20:32.189Z,99766.22
2022-09-03T10:23:23.891Z,99722.16
2022-09-03T10:26:16.875Z,99691.56
2022-09-03T10:28:50.645Z,99709.59
2022-09-03T10:31:56.963Z,99703.00
2022-09-03T10:34:37.244Z,99679.84
2022-09-03T10:37:30.038Z,99695.72
2022-09-03T10:40:28.889Z,99688.50
2022-09-03T10:43:16.949Z,99722.53
2022-09-03T10:45:52.681Z,99736.88
2022-09-03T10:48:40.209Z,99787.28
2022-09-03T10:51:47.502Z,99802.56
2022-09-03T10:54:34.336Z,99806.81
2022-09-03T10:57:42.273Z,99817.53
2022-09-03T11:00:12.737Z,99750.81
2022-09-03T11:02:58.909Z,99700.81
2022-09-03T11:05:38.666Z,99594.91
2022-09-03T11:08:06.120Z,99489.47
2022-09-03T11:10:35.256Z,99482.59
2022-09-03T11:13:09.096Z,99403.91
2022-09-03T11:15:41.681Z,99395.34
2022-09-03T11:18:23.960Z,99245.31
2022-09-03T11:20:54.904Z,99236.47
2022-09-03T11:23:25.048Z,99226.13
2022-09-03T11:25:56.727Z,99298.25
2022-09-03T11:28:52.565Z,99360.06
2022-09-03T11:31:32.213Z,99453.19
2022-09-03T11:34:14.095Z,99552.13
2022-09-03T11:36:50.494Z,99593.16
2022-09-03T11:39:26.629Z,99673.50
2022-09-03T11:42:07.085Z,99727.56
2022-09-03T11:44:47.726Z,99701.34
2022-09-03T11:47:39.714Z,99734.44
2022-09-03T11:50:21.174Z,99765.22
2022-09-03T11:52:53.322Z,99749.84
2022-09-03T11:55:38.225Z,99750.53
2022-09-03T11:58:18.696Z,99766.59
2022-09-03T12:00:46.152Z,99737.03
2022-09-03T12:03:18.824Z,99707.31
2022-09-03T12:05:53.062Z,99713.97
2022-09-03T12:08:36.345Z,99620.47
2022-09-03T12:11:33.782Z,99506.25
2022-09-03T12:14:18.857Z,99401.38
2022-09-03T12:16:45.553Z,99290.13
2022-09-03T12:19:47.914Z,99095.75
2022-09-03T12:22:16.794Z,99069.25
2022-09-03T12:24:48.192Z,99055.81
2022-09-03T12:27:26.243Z,99030.53
2022-09-03T12:30:00.817Z,99019.75
2022-09-03T12:32:37.147Z,99065.28
2022-09-03T12:38:23.667Z,99097.81
2022-09-03T12:43:49.809Z,99079.00
2022-09-03T12:46:17.846Z,99042.00
2022-09-03T12:51:52.448Z,99060.84
2022-09-03T12:54:21.416Z,99153.03
2022-09-03T12:56:58.357Z,99237.81
2022-09-03T12:59:31.883Z,99297.09
2022-09-03T13:02:05.829Z,99355.03
2022-09-03T13:04:35.656Z,99393.13
2022-09-03T13:07:13.158Z,99427.53
2022-09-03T13:09:42.236Z,99433.94
2022-09-03T13:12:28.605Z,99380.41
2022-09-03T13:14:57.589Z,99330.69
2022-09-03T13:17:33.063Z,99248.03
2022-09-03T13:20:08.717Z,99178.47
2022-09-03T13:23:18.520Z,99152.34
2022-09-03T13:25:52.658Z,99078.34
2022-09-03T13:28:47.240Z,99007.97
2022-09-03T13:31:35.365Z,98941.50
2022-09-03T13:34:22.168Z,98880.72
2022-09-03T13:36:56.520Z,98948.09
2022-09-03T13:39:35.508Z,98988.25
2022-09-03T13:42:37.567Z,99042.28
2022-09-03T13:45:16.921Z,99034.63
2022-09-03T13:48:07.015Z,98987.31
2022-09-03T13:50:59.144Z,99018.41
2022-09-03T13:53:32.909Z,99083.44
2022-09-03T13:56:07.856Z,99140.59
2022-09-03T13:58:43.270Z,99204.84
2022-09-03T14:01:20.622Z,99186.56
2022-09-03T14:03:55.204Z,99166.25
2022-09-03T14:06:33.841Z,99140.78
2022-09-03T14:09:06.692Z,99138.91
2022-09-03T14:11:56.973Z,99139.94
2022-09-03T14:14:41.419Z,99112.25
2022-09-03T14:17:36.865Z,99097.94
2022-09-03T14:20:11.862Z,99075.75
2022-09-03T14:22:53.588Z,99112.63
2022-09-03T14:25:26.573Z,99177.41
2022-09-03T14:27:55.845Z,99246.50
2022-09-03T14:30:35.487Z,99329.22
2022-09-03T14:33:39.005Z,99397.38
2022-09-03T14:36:33.800Z,99462.06
2022-09-03T14:39:31.614Z,99429.44
2022-09-03T14:42:16.009Z,99415.75
2022-09-03T14:44:56.354Z,99432.03
2022-09-03T14:48:20.395Z,99470.91
2022-09-03T14:51:03.690Z,99525.50
2022-09-03T14:53:51.018Z,99571.13
2022-09-03T14:56:39.458Z,99614.56
2022-09-03T14:59:31.150Z,99643.09
2022-09-03T15:02:28.440Z,99673.97
2022-09-03T15:05:19.114Z,99697.91
2022-09-03T15:07:54.549Z,99720.75
2022-09-03T15:10:56.555Z,99747.78
2022-09-03T15:13:34.665Z,99768.13
2022-09-03T15:16:01.736Z,99805.09
2022-09-03T15:18:31.542Z,99892.50
2022-09-03T15:21:12.737Z,99977.47
2022-09-03T15:24:07.157Z,100082.06
2022-09-03T15:26:56.970Z,100086.72
2022-09-03T15:29:58.522Z,100146.06
2022-09-03T15:32:32.842Z,100165.41
2022-09-03T15:35:09.606Z,100217.53
2022-09-03T15:37:52.859Z,100212.41
2022-09-03T15:40:33.188Z,100236.66
2022-09-03T15:43:22.933Z,100299.22
2022-09-03T15:45:57.435Z,100325.38
2022-09-03T15:48:50.798Z,100373.16
2022-09-03T15:51:25.509Z,100392.28
2022-09-03T15:53:59.950Z,100400.13
2022-09-03T15:56:47.247Z,100434.81
2022-09-03T15:59:24.775Z,100427.91
2022-09-03T16:02:03.874Z,100423.56
2022-09-03T16:04:53.377Z,100426.19
2022-09-03T16:07:38.336Z,100400.19
2022-09-03T16:10:24.301Z,100363.78
2022-09-03T16:13:31.684Z,100251.91
2022-09-03T16:16:05.276Z,100173.84
2022-09-03T16:18:41.364Z,100114.00
2022-09-03T16:21:22.816Z,100063.75
2022-09-03T16:23:54.850Z,100013.47
2022-09-03T16:26:31.522Z,99995.19
2022-09-03T16:29:08.808Z,99993.53
2022-09-03T16:31:39.998Z,99966.66
2022-09-03T16:34:41.638Z,99957.94
2022-09-03T16:37:14.385Z,99925.03
2022-09-03T16:39:53.095Z,99926.72
2022-09-03T16:42:19.888Z,99932.91
2022-09-03T16:45:56.219Z,99931.94
2022-09-03T16:48:58.143Z,99921.69
2022-09-03T16:51:44.834Z,99927.78
2022-09-03T16:54:20.506Z,99931.31
2022-09-03T16:57:08.039Z,99922.75
2022-09-03T17:00:08.276Z,99920.22
2022-09-03T17:03:26.410Z,99926.25
2022-09-03T17:06:42.718Z,99923.66
2022-09-03T17:09:21.689Z,99921.91
2022-09-03T17:12:05.968Z,99923.59
2022-09-03T17:15:00.678Z,99923.56
2022-09-03T17:17:36.168Z,99923.66
2022-09-03T17:20:16.887Z,99913.22
2022-09-03T17:22:53.069Z,99920.94
2022-09-03T17:25:54.593Z,99922.56
2022-09-03T17:28:35.943Z,99919.00
2022-09-03T17:31:17.995Z,99920.69
2022-09-03T17:34:19.394Z,99918.84
2022-09-03T17:37:05.858Z,99924.88
2022-09-03T17:39:51.826Z,99935.25
2022-09-03T17:42:27.821Z,99926.63
2022-09-03T17:45:03.651Z,99921.41
2022-09-03T17:48:18.706Z,99927.44
2022-09-03T17:50:55.852Z,99933.53
2022-09-03T17:53:30.819Z,99928.38
2022-09-03T17:56:11.806Z,99924.88
2022-09-03T17:59:09.016Z,99929.19
2022-09-03T18:01:38.935Z,99930.06
2022-09-03T18:04:27.262Z,99924.84
2022-09-03T18:07:01.463Z,99928.28
2022-09-03T18:09:40.661Z,99930.00
2022-09-03T18:12:36.883Z,99932.56
2022-09-03T18:15:14.497Z,99946.47
2022-09-03T18:18:02.870Z,99945.75
2022-09-03T18:21:20.758Z,99938.97
2022-09-03T18:24:09.445Z,99934.75
2022-09-03T18:27:01.740Z,99933.06
2022-09-03T18:29:54.515Z,99926.97
2022-09-03T18:32:39.869Z,99920.06
2022-09-03T18:35:27.449Z,99924.38
2022-09-03T18:38:12.622Z,99930.47
2022-09-03T18:41:25.182Z,99920.06
2022-09-03T18:44:19.541Z,99922.69
2022-09-03T18:50:48.176Z,99911.44
2022-09-03T18:53:52.663Z,99914.97
2022-09-03T18:56:53.975Z,99908.16
2022-09-03T18:59:48.537Z,99919.50
2022-09-03T19:03:26.330Z,99919.63
2022-09-03T19:06:35.471Z,99913.66
2022-09-03T19:09:27.806Z,99911.94
2022-09-03T19:12:22.222Z,99905.00
2022-09-03T19:15:20.579Z,99901.63
2022-09-03T19:18:05.758Z,99893.88
2022-09-03T19:20:54.456Z,99900.81
2022-09-03T19:23:39.702Z,99896.50
2022-09-03T19:26:49.837Z,99894.78
2022-09-03T19:29:57.373Z,99896.47
2022-09-03T19:32:53.284Z,99894.78
2022-09-03T19:35:49.023Z,99888.72
2022-09-03T19:39:10.581Z,99889.59
2022-09-03T19:42:05.332Z,99888.69
2022-09-03T19:45:15.670Z,99893.03
2022-09-03T19:48:00.896Z,99896.47
2022-09-03T19:50:52.712Z,99895.59
2022-09-03T19:53:38.611Z,99892.09
2022-09-03T19:56:37.396Z,99894.69
2022-09-03T19:59:29.770Z,99900.75
2022-09-03T20:02:15.023Z,99894.66
2022-09-03T20:05:06.611Z,99894.63
2022-09-03T20:07:53.736Z,99894.63
2022-09-03T20:10:24.241Z,99897.22
2022-09-03T20:13:04.392Z,99899.81
2022-09-03T20:16:02.189Z,99902.44
2022-09-03T20:18:56.387Z,99903.31
2022-09-03T20:21:34.155Z,99901.59
2022-09-03T20:24:19.748Z,99899.84
2022-09-03T20:26:52.393Z,99896.41
2022-09-03T20:29:27.369Z,99899.00
2022-09-03T20:32:39.730Z,99904.19
2022-09-03T20:35:18.587Z,99899.84
2022-09-03T20:38:09.261Z,99908.53
2022-09-03T20:40:50.932Z,99904.19
2022-09-03T20:43:49.638Z,99899.00
2022-09-03T20:46:31.612Z,99898.16
2022-09-03T20:49:38.636Z,99911.97
2022-09-03T20:52:12.272Z,99896.44
2022-09-03T20:55:05.857Z,99899.00
2022-09-03T20:57:59.609Z,99892.97
2022-09-03T21:00:33.472Z,99895.56
2022-09-03T21:03:14.298Z,99891.22
2022-09-03T21:05:41.051Z,99887.72
2022-09-03T21:08:49.564Z,99888.56
2022-09-03T21:11:29.950Z,99886.03
2022-09-03T21:14:28.833Z,99897.25
2022-09-03T21:17:04.997Z,99895.56
2022-09-03T21:19:34.784Z,99895.56
2022-09-03T21:22:09.502Z,99889.47
2022-09-03T21:24:53.122Z,99889.47
2022-09-03T21:27:24.314Z,99894.66
2022-09-03T21:30:02.643Z,99897.25
2022-09-03T21:32:45.037Z,99898.97
2022-09-03T21:35:38.810Z,99896.34
2022-09-03T21:38:08.352Z,99898.97
2022-09-03T21:40:43.596Z,99903.25
2022-09-03T21:43:22.358Z,99904.16
2022-09-03T21:46:15.701Z,99906.72
2022-09-03T21:48:51.265Z,99917.97
2022-09-03T21:51:31.548Z,99905.84
2022-09-03T21:54:06.535Z,99911.94
2022-09-03T21:56:51.821Z,99905.91
2022-09-03T21:59:27.694Z,99912.84
2022-09-03T22:02:11.642Z,99908.50
2022-09-03T22:04:38.493Z,99905.03
2022-09-03T22:07:36.430Z,99913.69
2022-09-03T22:10:22.009Z,99918.88
2022-09-03T22:13:22.002Z,99913.72
2022-09-03T22:15:51.087Z,99917.22
2022-09-03T22:18:37.962Z,99913.72
2022-09-03T22:21:24.868Z,99916.34
2022-09-03T22:23:57.401Z,99923.28
2022-09-03T22:26:42.924Z,99926.75
2022-09-03T22:29:19.785Z,99922.47
2022-09-03T22:31:50.800Z,99933.72
2022-09-03T22:34:50.932Z,99938.00
2022-09-03T22:37:26.031Z,99930.25
2022-09-03T22:40:00.918Z,99932.84
2022-09-03T22:42:54.557Z,99933.69
2022-09-03T22:45:34.446Z,99925.91
2022-09-03T22:48:30.537Z,99940.63
2022-09-03T22:51:01.922Z,99929.38
2022-09-03T22:54:06.843Z,99925.94
2022-09-03T22:56:40.604Z,99929.38
2022-09-03T22:59:16.391Z,99923.34
2022-09-03T23:01:48.670Z,99922.47
2022-09-03T23:04:55.418Z,99923.31
2022-09-03T23:07:35.007Z,99919.00
2022-09-03T23:10:29.183Z,99914.69
2022-09-03T23:13:10.960Z,99910.38
2022-09-03T23:15:41.641Z,99906.03
2022-09-03T23:18:15.451Z,99918.13
2022-09-03T23:20:47.221Z,99928.50
2022-09-03T23:23:31.144Z,99926.78
2022-09-03T23:26:16.290Z,99929.34
2022-09-03T23:28:49.492Z,99934.50
2022-09-03T23:31:19.149Z,99928.44
2022-09-03T23:33:46.498Z,99933.63
2022-09-03T23:37:15.968Z,99932.78
2022-09-03T23:40:03.818Z,99935.34
2022-09-03T23:42:52.483Z,99931.88
2022-09-03T23:45:37.676Z,99934.47
2022-09-03T23:48:19.400Z,99946.53
2022-09-03T23:51:03.157Z,99939.63
2022-09-03T23:53:57.338Z,99939.63
2022-09-03T23:56:48.704Z,99947.38
2022-09-03T23:59:18.453Z,99942.19
